createdAt,value
2022-11-05T00:00:12.308Z,9.80
2022-11-05T00:03:24.067Z,9.80
2022-11-05T00:06:15.804Z,9.80
2022-11-05T00:09:06.906Z,9.80
2022-11-05T00:11:58.091Z,9.70
2022-11-05T00:14:49.215Z,9.70
2022-11-05T00:17:21.974Z,9.70
2022-11-05T00:19:54.474Z,9.70
2022-11-05T00:22:46.774Z,9.70
2022-11-05T00:25:20.491Z,9.60
2022-11-05T00:27:53.766Z,9.60
2022-11-05T00:30:26.767Z,9.60
2022-11-05T00:33:03.541Z,9.50
2022-11-05T00:35:36.070Z,9.50
2022-11-05T00:38:17.548Z,9.50
2022-11-05T00:40:50.082Z,9.50
2022-11-05T00:43:41.279Z,9.50
2022-11-05T00:46:13.855Z,9.50
2022-11-05T00:49:05.581Z,9.60
2022-11-05T00:51:38.054Z,9.50
2022-11-05T00:54:10.857Z,9.50
2022-11-05T00:56:43.349Z,9.50
2022-11-05T00:59:16.117Z,9.40
2022-11-05T01:01:48.857Z,9.50
2022-11-05T01:04:21.841Z,9.40
2022-11-05T01:06:55.248Z,9.50
2022-11-05T01:09:28.052Z,9.50
2022-11-05T01:12:00.539Z,9.50
2022-11-05T01:14:33.331Z,9.40
2022-11-05T01:17:05.834Z,9.40
2022-11-05T01:19:39.521Z,9.40
2022-11-05T01:22:12.908Z,9.40
2022-11-05T01:24:46.081Z,9.40
2022-11-05T01:27:18.579Z,9.50
2022-11-05T01:29:51.604Z,9.50
2022-11-05T01:32:24.156Z,9.50
2022-11-05T01:34:56.914Z,9.40
2022-11-05T01:37:29.523Z,9.50
2022-11-05T01:40:03.109Z,9.50
2022-11-05T01:42:35.570Z,9.50
2022-11-05T01:45:17.268Z,9.50
2022-11-05T01:48:01.728Z,9.50
2022-11-05T01:50:48.285Z,9.50
2022-11-05T01:53:44.304Z,9.50
2022-11-05T01:56:28.454Z,9.50
2022-11-05T01:59:03.045Z,9.50
2022-11-05T02:01:36.544Z,9.50
2022-11-05T02:04:14.739Z,9.50
2022-11-05T02:06:47.670Z,9.60
2022-11-05T02:09:28.395Z,9.60
2022-11-05T02:12:01.580Z,9.60
2022-11-05T02:14:34.056Z,9.60
2022-11-05T02:17:30.374Z,9.60
2022-11-05T02:20:40.049Z,9.60
2022-11-05T02:23:42.175Z,9.60
2022-11-05T02:26:46.520Z,9.60
2022-11-05T02:29:28.950Z,9.60
2022-11-05T02:32:01.375Z,9.50
2022-11-05T02:34:49.146Z,9.50
2022-11-05T02:37:35.840Z,9.50
2022-11-05T02:40:46.028Z,9.50
2022-11-05T02:43:45.910Z,9.50
2022-11-05T02:46:43.295Z,9.50
2022-11-05T02:49:48.340Z,9.50
2022-11-05T02:52:29.269Z,9.60
2022-11-05T02:55:09.220Z,9.60
2022-11-05T02:57:46.600Z,9.60
2022-11-05T03:00:58.048Z,9.60
2022-11-05T03:03:39.131Z,9.60
2022-11-05T03:06:36.007Z,9.60
2022-11-05T03:09:29.855Z,9.60
2022-11-05T03:12:32.808Z,9.60
2022-11-05T03:15:42.540Z,9.60
2022-11-05T03:18:21.068Z,9.60
2022-11-05T03:21:19.992Z,9.60
2022-11-05T03:23:59.445Z,9.70
2022-11-05T03:26:38.592Z,9.70
2022-11-05T03:29:25.516Z,9.70
2022-11-05T03:32:01.963Z,9.70
2022-11-05T03:34:43.536Z,9.70
2022-11-05T03:37:20.228Z,9.70
2022-11-05T03:39:56.506Z,9.70
2022-11-05T03:42:34.735Z,9.70
2022-11-05T03:45:16.860Z,9.70
2022-11-05T03:47:52.491Z,9.70
2022-11-05T03:50:41.282Z,9.80
2022-11-05T03:53:16.181Z,9.80
2022-11-05T03:56:01.282Z,9.80
2022-11-05T03:58:35.350Z,9.80
2022-11-05T04:01:07.956Z,9.80
2022-11-05T04:03:40.970Z,9.80
2022-11-05T04:06:32.078Z,9.80
2022-11-05T04:09:23.280Z,9.80
2022-11-05T04:12:14.526Z,9.80
2022-11-05T04:14:47.318Z,9.90
2022-11-05T04:17:19.903Z,9.90
2022-11-05T04:20:11.341Z,9.90
2022-11-05T04:23:19.274Z,9.90
2022-11-05T04:25:52.132Z,9.90
2022-11-05T04:28:44.573Z,9.90
2022-11-05T04:31:17.310Z,9.90
2022-11-05T04:33:49.822Z,9.90
2022-11-05T04:36:22.578Z,9.90
2022-11-05T04:38:55.044Z,9.90
2022-11-05T04:41:27.787Z,10.00
2022-11-05T04:44:00.391Z,10.00
2022-11-05T04:46:33.437Z,10.00
2022-11-05T04:49:06.001Z,10.00
2022-11-05T04:51:38.764Z,10.00
2022-11-05T04:54:11.227Z,10.00
2022-11-05T04:56:44.229Z,10.00
2022-11-05T04:59:16.748Z,10.10
2022-11-05T05:01:53.284Z,10.00
2022-11-05T05:04:26.041Z,10.00
2022-11-05T05:06:58.768Z,10.10
2022-11-05T05:09:31.255Z,10.00
2022-11-05T05:12:04.061Z,10.00
2022-11-05T05:14:36.715Z,10.10
2022-11-05T05:17:09.753Z,10.10
2022-11-05T05:20:01.393Z,10.00
2022-11-05T05:22:34.173Z,10.00
2022-11-05T05:25:07.021Z,10.00
2022-11-05T05:27:39.765Z,10.00
2022-11-05T05:30:12.558Z,10.10
2022-11-05T05:32:45.310Z,10.10
2022-11-05T05:35:17.805Z,10.10
2022-11-05T05:37:55.013Z,10.10
2022-11-05T05:40:27.642Z,10.10
2022-11-05T05:43:00.513Z,10.10
2022-11-05T05:45:34.901Z,10.00
2022-11-05T05:48:07.741Z,10.00
2022-11-05T05:50:40.229Z,9.90
2022-11-05T05:53:13.175Z,9.90
2022-11-05T05:55:45.905Z,9.90
2022-11-05T05:58:18.645Z,9.90
2022-11-05T06:00:51.162Z,10.00
2022-11-05T06:03:23.893Z,10.00
2022-11-05T06:06:11.101Z,10.00
2022-11-05T06:08:44.132Z,10.00
2022-11-05T06:11:16.813Z,9.90
2022-11-05T06:13:49.706Z,9.90
2022-11-05T06:16:22.197Z,9.90
2022-11-05T06:18:54.940Z,9.90
2022-11-05T06:21:27.416Z,9.90
2022-11-05T06:24:02.162Z,9.90
2022-11-05T06:26:34.634Z,9.90
2022-11-05T06:29:07.364Z,9.90
2022-11-05T06:31:39.815Z,9.90
2022-11-05T06:34:12.554Z,9.90
2022-11-05T06:36:45.007Z,9.90
2022-11-05T06:39:17.707Z,10.00
2022-11-05T06:42:16.402Z,10.00
2022-11-05T06:44:42.954Z,10.00
2022-11-05T06:47:15.585Z,10.00
2022-11-05T06:49:48.471Z,10.00
2022-11-05T06:52:21.090Z,10.00
2022-11-05T06:54:53.819Z,10.10
2022-11-05T06:57:26.348Z,10.10
2022-11-05T07:00:08.000Z,10.10
2022-11-05T07:02:40.954Z,10.10
2022-11-05T07:05:14.683Z,10.10
2022-11-05T07:07:47.295Z,10.10
2022-11-05T07:10:20.197Z,10.10
2022-11-05T07:12:52.688Z,10.10
2022-11-05T07:15:25.553Z,10.10
2022-11-05T07:17:59.395Z,10.10
2022-11-05T07:20:34.940Z,10.10
2022-11-05T07:23:14.363Z,10.10
2022-11-05T07:25:47.402Z,10.10
2022-11-05T07:28:19.959Z,10.10
2022-11-05T07:30:52.753Z,10.10
2022-11-05T07:33:25.211Z,10.10
2022-11-05T07:35:58.212Z,10.10
2022-11-05T07:38:30.868Z,10.10
2022-11-05T07:41:04.233Z,10.10
2022-11-05T07:43:38.695Z,10.10
2022-11-05T07:46:15.144Z,10.10
2022-11-05T07:49:11.362Z,10.20
2022-11-05T07:51:44.588Z,10.20
2022-11-05T07:54:17.024Z,10.20
2022-11-05T07:56:49.764Z,10.10
2022-11-05T07:59:22.432Z,10.10
2022-11-05T08:01:55.370Z,10.10
2022-11-05T08:04:27.909Z,10.10
2022-11-05T08:07:02.696Z,10.10
2022-11-05T08:09:35.197Z,10.10
2022-11-05T08:12:08.692Z,10.10
2022-11-05T08:14:41.228Z,10.20
2022-11-05T08:17:18.308Z,10.20
2022-11-05T08:19:53.839Z,10.20
2022-11-05T08:22:26.685Z,10.30
2022-11-05T08:25:03.996Z,10.30
2022-11-05T08:27:40.689Z,10.30
2022-11-05T08:30:13.413Z,10.30
2022-11-05T08:32:48.096Z,10.30
2022-11-05T08:35:20.597Z,10.30
2022-11-05T08:38:03.018Z,10.30
2022-11-05T08:40:37.199Z,10.40
2022-11-05T08:43:13.946Z,10.40
2022-11-05T08:45:46.820Z,10.40
2022-11-05T08:48:19.987Z,10.40
2022-11-05T08:50:52.565Z,10.40
2022-11-05T08:53:25.334Z,10.40
2022-11-05T08:55:58.800Z,10.40
2022-11-05T08:58:32.875Z,10.40
2022-11-05T09:01:05.865Z,10.40
2022-11-05T09:03:38.675Z,10.40
2022-11-05T09:06:11.120Z,10.50
2022-11-05T09:08:44.059Z,10.50
2022-11-05T09:11:18.079Z,10.50
2022-11-05T09:13:50.845Z,10.60
2022-11-05T09:16:25.359Z,10.60
2022-11-05T09:18:58.095Z,10.60
2022-11-05T09:21:31.238Z,10.60
2022-11-05T09:24:04.556Z,10.60
2022-11-05T09:26:37.139Z,10.60
2022-11-05T09:29:14.243Z,10.60
2022-11-05T09:31:47.057Z,10.70
2022-11-05T09:34:19.807Z,10.70
2022-11-05T09:36:52.302Z,10.70
2022-11-05T09:39:25.183Z,10.70
2022-11-05T09:42:04.536Z,10.80
2022-11-05T09:44:54.820Z,10.70
2022-11-05T09:47:31.792Z,10.70
2022-11-05T09:50:14.455Z,10.70
2022-11-05T09:52:47.108Z,10.60
2022-11-05T09:55:30.684Z,10.60
2022-11-05T09:58:28.638Z,10.60
2022-11-05T10:01:04.301Z,10.60
2022-11-05T10:03:48.281Z,10.60
2022-11-05T10:06:25.155Z,10.70
2022-11-05T10:09:01.122Z,10.70
2022-11-05T10:11:48.051Z,10.80
2022-11-05T10:14:26.246Z,10.90
2022-11-05T10:17:15.330Z,10.90
2022-11-05T10:19:54.399Z,11.00
2022-11-05T10:22:27.336Z,10.90
2022-11-05T10:25:14.920Z,10.90
2022-11-05T10:27:53.988Z,10.90
2022-11-05T10:30:26.463Z,11.00
2022-11-05T10:33:03.374Z,10.90
2022-11-05T10:35:46.987Z,11.00
2022-11-05T10:38:20.059Z,11.00
2022-11-05T10:41:10.186Z,11.10
2022-11-05T10:43:49.940Z,11.10
2022-11-05T10:46:33.051Z,11.20
2022-11-05T10:49:11.862Z,11.40
2022-11-05T10:51:46.613Z,11.50
2022-11-05T10:54:24.412Z,11.60
2022-11-05T10:56:56.976Z,11.50
2022-11-05T10:59:30.635Z,11.50
2022-11-05T11:02:20.942Z,11.40
2022-11-05T11:04:55.168Z,11.30
2022-11-05T11:07:27.688Z,11.30
2022-11-05T11:10:00.476Z,11.20
2022-11-05T11:12:42.450Z,11.30
2022-11-05T11:15:23.177Z,11.30
2022-11-05T11:17:56.937Z,11.30
2022-11-05T11:20:33.306Z,11.30
2022-11-05T11:23:14.897Z,11.20
2022-11-05T11:25:53.480Z,11.30
2022-11-05T11:28:33.085Z,11.20
2022-11-05T11:31:13.412Z,11.30
2022-11-05T11:33:49.139Z,11.30
2022-11-05T11:36:26.958Z,11.40
2022-11-05T11:39:02.445Z,11.30
2022-11-05T11:41:42.043Z,11.20
2022-11-05T11:44:20.074Z,11.20
2022-11-05T11:46:55.268Z,11.20
2022-11-05T11:49:39.781Z,11.10
2022-11-05T11:52:24.133Z,11.10
2022-11-05T11:55:11.610Z,11.10
2022-11-05T11:57:50.577Z,11.10
2022-11-05T12:00:31.145Z,11.00
2022-11-05T12:03:47.454Z,10.90
2022-11-05T12:06:57.089Z,11.00
2022-11-05T12:10:06.124Z,11.00
2022-11-05T12:12:51.052Z,11.00
2022-11-05T12:15:48.301Z,11.00
2022-11-05T12:18:31.453Z,11.00
2022-11-05T12:22:40.100Z,11.00
2022-11-05T12:25:15.555Z,11.00
2022-11-05T12:28:09.488Z,11.00
2022-11-05T12:31:05.151Z,11.00
2022-11-05T12:34:26.996Z,11.00
2022-11-05T12:37:36.532Z,11.00
2022-11-05T12:40:29.977Z,11.00
2022-11-05T12:43:21.229Z,10.90
2022-11-05T12:45:56.723Z,10.90
2022-11-05T12:49:06.433Z,10.90
2022-11-05T12:51:57.819Z,10.90
2022-11-05T12:54:58.549Z,10.80
2022-11-05T12:57:36.273Z,10.90
2022-11-05T13:00:18.295Z,10.90
2022-11-05T13:03:19.163Z,10.80
2022-11-05T13:05:54.181Z,10.80
2022-11-05T13:08:45.111Z,10.80
2022-11-05T13:11:29.669Z,10.80
2022-11-05T13:14:16.241Z,10.80
2022-11-05T13:17:14.528Z,10.80
2022-11-05T13:20:16.035Z,10.80
2022-11-05T13:29:42.424Z,10.60
2022-11-05T13:32:33.904Z,10.50
2022-11-05T13:35:14.351Z,10.50
2022-11-05T13:38:12.384Z,10.50
2022-11-05T13:41:04.622Z,10.50
2022-11-05T13:43:46.725Z,10.50
2022-11-05T13:46:53.622Z,10.40
2022-11-05T13:50:01.617Z,10.40
2022-11-05T13:52:40.064Z,10.40
2022-11-05T13:55:41.612Z,10.50
2022-11-05T13:58:40.304Z,10.50
2022-11-05T14:01:31.640Z,10.50
2022-11-05T14:04:04.773Z,10.40
2022-11-05T14:06:37.655Z,10.40
2022-11-05T14:09:16.648Z,10.40
2022-11-05T14:11:55.151Z,10.40
2022-11-05T14:14:30.640Z,10.40
2022-11-05T14:17:09.392Z,10.40
2022-11-05T14:20:02.843Z,10.40
2022-11-05T14:22:42.077Z,10.40
2022-11-05T14:25:20.378Z,10.40
2022-11-05T14:27:53.142Z,10.40
2022-11-05T14:30:46.066Z,10.50
2022-11-05T14:33:25.210Z,10.50
2022-11-05T14:36:37.003Z,10.50
2022-11-05T14:39:27.959Z,10.50
2022-11-05T14:42:20.066Z,10.50
2022-11-05T14:44:57.146Z,10.50
2022-11-05T14:47:35.863Z,10.50
2022-11-05T14:50:18.270Z,10.50
2022-11-05T14:52:54.124Z,10.50
2022-11-05T14:55:34.296Z,10.50
2022-11-05T14:58:45.434Z,10.50
2022-11-05T15:01:40.111Z,10.50
2022-11-05T15:04:32.549Z,10.50
2022-11-05T15:07:05.908Z,10.50
2022-11-05T15:09:47.170Z,10.50
2022-11-05T15:12:31.714Z,10.50
2022-11-05T15:15:20.411Z,10.50
2022-11-05T15:17:58.345Z,10.50
2022-11-05T15:20:44.093Z,10.50
2022-11-05T15:23:21.586Z,10.50
2022-11-05T15:26:10.395Z,10.50
2022-11-05T15:28:45.003Z,10.40
2022-11-05T15:31:39.663Z,10.40
2022-11-05T15:34:32.525Z,10.40
2022-11-05T15:37:25.443Z,10.40
2022-11-05T15:39:58.531Z,10.40
2022-11-05T15:42:31.156Z,10.40
2022-11-05T15:45:04.301Z,10.40
2022-11-05T15:47:36.951Z,10.40
2022-11-05T15:50:15.390Z,10.40
2022-11-05T15:52:51.671Z,10.40
2022-11-05T15:55:27.096Z,10.40
2022-11-05T15:58:04.279Z,10.30
2022-11-05T16:00:37.573Z,10.40
2022-11-05T16:03:25.565Z,10.40
2022-11-05T16:06:00.448Z,10.40
2022-11-05T16:08:33.577Z,10.30
2022-11-05T16:11:06.349Z,10.30
2022-11-05T16:13:41.474Z,10.30
2022-11-05T16:16:14.216Z,10.30
2022-11-05T16:18:47.537Z,10.30
2022-11-05T16:21:23.274Z,10.30
2022-11-05T16:23:58.759Z,10.30
2022-11-05T16:27:02.284Z,10.30
2022-11-05T16:29:35.793Z,10.20
2022-11-05T16:32:28.622Z,10.20
2022-11-05T16:35:06.171Z,10.20
2022-11-05T16:37:46.391Z,10.20
2022-11-05T16:40:25.810Z,10.20
2022-11-05T16:43:21.949Z,10.20
2022-11-05T16:45:57.437Z,10.20
2022-11-05T16:48:30.469Z,10.20
2022-11-05T16:51:03.009Z,10.20
2022-11-05T16:53:35.798Z,10.20
2022-11-05T16:56:23.199Z,10.20
2022-11-05T16:58:56.669Z,10.10
2022-11-05T17:01:29.851Z,10.10
2022-11-05T17:04:02.660Z,10.10
2022-11-05T17:06:35.130Z,10.10
2022-11-05T17:09:07.927Z,10.10
2022-11-05T17:11:40.483Z,10.10
2022-11-05T17:14:13.951Z,10.10
2022-11-05T17:16:46.464Z,10.10
2022-11-05T17:19:19.271Z,10.10
2022-11-05T17:21:51.779Z,10.20
2022-11-05T17:24:24.576Z,10.10
2022-11-05T17:26:57.141Z,10.10
2022-11-05T17:29:30.263Z,10.10
2022-11-05T17:32:02.829Z,10.10
2022-11-05T17:34:35.601Z,10.00
2022-11-05T17:37:08.138Z,10.10
2022-11-05T17:39:40.976Z,10.10
2022-11-05T17:42:13.421Z,10.10
2022-11-05T17:44:46.214Z,10.10
2022-11-05T17:47:18.712Z,10.00
2022-11-05T17:49:51.583Z,10.00
2022-11-05T17:52:24.084Z,10.10
2022-11-05T17:54:56.864Z,10.10
2022-11-05T17:57:29.365Z,10.10
2022-11-05T18:00:02.147Z,10.00
2022-11-05T18:02:34.854Z,10.00
2022-11-05T18:05:08.171Z,10.00
2022-11-05T18:07:40.755Z,10.00
2022-11-05T18:10:13.844Z,9.90
2022-11-05T18:12:47.586Z,9.90
2022-11-05T18:15:20.421Z,9.80
2022-11-05T18:17:52.989Z,9.80
2022-11-05T18:20:25.710Z,9.80
2022-11-05T18:22:58.332Z,9.70
2022-11-05T18:25:31.127Z,9.70
2022-11-05T18:28:03.888Z,9.60
2022-11-05T18:30:39.023Z,9.60
2022-11-05T18:33:11.911Z,9.50
2022-11-05T18:35:45.245Z,9.50
2022-11-05T18:38:17.695Z,9.50
2022-11-05T18:40:50.398Z,9.50
2022-11-05T18:43:22.852Z,9.40
2022-11-05T18:45:56.632Z,9.30
2022-11-05T18:48:29.197Z,9.40
2022-11-05T18:51:14.406Z,9.30
2022-11-05T18:53:46.908Z,9.30
2022-11-05T18:56:20.030Z,9.20
2022-11-05T18:59:14.591Z,9.20
2022-11-05T19:01:47.664Z,9.20
2022-11-05T19:04:20.223Z,9.20
2022-11-05T19:06:56.927Z,9.10
2022-11-05T19:09:37.067Z,9.10
2022-11-05T19:12:14.649Z,9.00
2022-11-05T19:14:49.030Z,9.00
2022-11-05T19:17:22.126Z,9.00
2022-11-05T19:19:55.038Z,8.90
2022-11-05T19:22:28.134Z,8.90
2022-11-05T19:25:03.590Z,8.90
2022-11-05T19:27:43.878Z,8.80
2022-11-05T19:30:16.325Z,8.80
2022-11-05T19:32:49.065Z,8.70
2022-11-05T19:35:21.761Z,8.70
2022-11-05T19:37:54.498Z,8.70
2022-11-05T19:40:26.985Z,8.70
2022-11-05T19:42:59.722Z,8.60
2022-11-05T19:45:44.648Z,8.60
2022-11-05T19:48:19.796Z,8.60
2022-11-05T19:51:00.050Z,8.50
2022-11-05T19:53:35.133Z,8.50
2022-11-05T19:56:14.977Z,8.50
2022-11-05T19:58:48.877Z,8.50
2022-11-05T20:01:23.375Z,8.40
2022-11-05T20:03:57.951Z,8.30
2022-11-05T20:06:37.900Z,8.30
2022-11-05T20:09:22.665Z,8.30
2022-11-05T20:11:59.118Z,8.30
2022-11-05T20:14:32.791Z,8.20
2022-11-05T20:17:05.325Z,8.10
2022-11-05T20:19:38.836Z,8.00
2022-11-05T20:22:18.798Z,8.00
2022-11-05T20:24:52.039Z,8.00
2022-11-05T20:27:24.587Z,7.80
2022-11-05T20:29:57.323Z,7.80
2022-11-05T20:32:29.795Z,7.70
2022-11-05T20:35:02.547Z,7.70
2022-11-05T20:37:38.463Z,7.70
2022-11-05T20:40:14.088Z,7.70
2022-11-05T20:42:46.587Z,7.70
2022-11-05T20:45:35.588Z,7.70
2022-11-05T20:48:08.059Z,7.60
2022-11-05T20:51:26.151Z,7.50
2022-11-05T20:54:00.691Z,7.40
2022-11-05T20:56:36.956Z,7.40
2022-11-05T20:59:09.657Z,7.30
2022-11-05T21:01:44.641Z,7.20
2022-11-05T21:04:18.209Z,7.10
2022-11-05T21:06:51.001Z,7.00
2022-11-05T21:09:23.499Z,6.90
2022-11-05T21:12:11.526Z,6.90
2022-11-05T21:14:44.507Z,6.80
2022-11-05T21:17:17.412Z,6.80
2022-11-05T21:19:49.853Z,6.80
2022-11-05T21:22:22.600Z,6.70
2022-11-05T21:24:56.817Z,6.70
2022-11-05T21:27:29.531Z,6.60
2022-11-05T21:30:01.980Z,6.50
2022-11-05T21:32:34.843Z,6.40
2022-11-05T21:35:07.756Z,6.40
2022-11-05T21:37:40.564Z,6.30
2022-11-05T21:40:13.019Z,6.40
2022-11-05T21:42:45.773Z,6.50
2022-11-05T21:45:18.267Z,6.50
2022-11-05T21:47:51.124Z,6.40
2022-11-05T21:50:44.109Z,6.40
2022-11-05T21:53:36.437Z,6.40
2022-11-05T21:56:36.703Z,6.40
2022-11-05T21:59:31.879Z,6.40
2022-11-05T22:02:05.129Z,6.40
2022-11-05T22:04:41.174Z,6.40
2022-11-05T22:07:25.007Z,6.50
2022-11-05T22:10:01.621Z,6.40
2022-11-05T22:12:34.084Z,6.50
2022-11-05T22:15:07.260Z,6.40
2022-11-05T22:17:45.315Z,6.40
2022-11-05T22:20:27.470Z,6.40
2022-11-05T22:22:59.935Z,6.40
2022-11-05T22:25:35.647Z,6.50
2022-11-05T22:28:08.223Z,6.40
2022-11-05T22:30:41.052Z,6.30
2022-11-05T22:33:13.590Z,6.10
2022-11-05T22:35:46.642Z,6.10
2022-11-05T22:38:19.119Z,6.10
2022-11-05T22:40:51.921Z,6.10
2022-11-05T22:43:24.374Z,6.20
2022-11-05T22:46:06.447Z,6.10
2022-11-05T22:48:39.800Z,6.00
2022-11-05T22:51:16.142Z,6.00
2022-11-05T22:53:50.010Z,5.90
2022-11-05T22:56:25.241Z,6.00
2022-11-05T22:58:58.827Z,6.00
2022-11-05T23:01:31.690Z,6.00
2022-11-05T23:04:04.347Z,6.10
2022-11-05T23:06:55.616Z,6.10
2022-11-05T23:09:52.592Z,6.00
2022-11-05T23:12:32.244Z,6.00
2022-11-05T23:15:07.180Z,6.00
2022-11-05T23:17:58.459Z,6.00
2022-11-05T23:20:49.567Z,5.90
2022-11-05T23:23:40.679Z,5.90
2022-11-05T23:26:31.883Z,5.80
2022-11-05T23:29:04.672Z,5.70
2022-11-05T23:31:55.984Z,5.60
2022-11-05T23:34:29.078Z,5.70
2022-11-05T23:37:20.078Z,5.60
2022-11-05T23:39:52.971Z,5.60
2022-11-05T23:42:44.096Z,5.50
2022-11-05T23:45:51.954Z,5.40
2022-11-05T23:48:34.622Z,5.50
2022-11-05T23:51:10.168Z,5.50
2022-11-05T23:53:42.679Z,5.40
2022-11-05T23:56:15.791Z,5.50
2022-11-05T23:58:48.276Z,5.40
